createdAt,value
2018-12-27T00:01:24.802Z,41.17
2018-12-27T00:04:05.734Z,45.03
2018-12-27T00:06:46.856Z,47.17
2018-12-27T00:09:27.868Z,44.00
2018-12-27T00:12:08.426Z,42.87
2018-12-27T00:14:48.980Z,47.83
2018-12-27T00:17:30.247Z,43.40
2018-12-27T00:20:10.773Z,44.60
2018-12-27T00:22:51.645Z,47.33
2018-12-27T00:25:32.514Z,46.73
2018-12-27T00:28:13.672Z,41.87
2018-12-27T00:30:54.478Z,42.77
2018-12-27T00:33:35.413Z,43.83
2018-12-27T00:36:16.627Z,41.87
2018-12-27T00:38:57.296Z,44.83
2018-12-27T00:41:38.261Z,46.17
2018-12-27T00:44:19.326Z,36.47
2018-12-27T00:47:00.284Z,40.93
2018-12-27T00:49:41.065Z,45.63
2018-12-27T00:52:21.738Z,41.33
2018-12-27T00:55:02.624Z,36.03
2018-12-27T00:57:43.112Z,40.23
2018-12-27T01:00:23.933Z,38.67
2018-12-27T01:03:11.089Z,39.67
2018-12-27T01:05:46.941Z,39.23
2018-12-27T01:08:28.053Z,44.33
2018-12-27T01:11:09.059Z,35.13
2018-12-27T01:13:50.193Z,37.50
2018-12-27T01:16:30.976Z,35.93
2018-12-27T01:19:11.760Z,39.67
2018-12-27T01:21:52.500Z,35.03
2018-12-27T01:24:33.557Z,39.33
2018-12-27T01:27:14.192Z,38.03
2018-12-27T01:29:54.873Z,36.53
2018-12-27T01:32:35.864Z,38.67
2018-12-27T01:35:16.365Z,35.03
2018-12-27T01:37:56.876Z,37.40
2018-12-27T01:40:37.872Z,31.40
2018-12-27T01:43:18.406Z,32.70
2018-12-27T01:45:59.310Z,34.70
2018-12-27T01:48:38.061Z,28.93
2018-12-27T01:51:25.897Z,33.37
2018-12-27T01:54:13.722Z,35.33
2018-12-27T01:57:01.572Z,34.47
2018-12-27T01:59:49.404Z,35.97
2018-12-27T02:02:37.255Z,33.13
2018-12-27T02:05:25.089Z,32.10
2018-12-27T02:08:12.927Z,32.37
2018-12-27T02:11:00.754Z,31.93
2018-12-27T02:13:41.429Z,33.47
2018-12-27T02:16:22.476Z,26.27
2018-12-27T02:19:03.185Z,31.27
2018-12-27T02:21:43.937Z,31.00
2018-12-27T02:24:25.018Z,30.53
2018-12-27T02:27:05.563Z,29.67
2018-12-27T02:29:46.040Z,32.40
2018-12-27T02:32:26.764Z,24.33
2018-12-27T02:35:07.590Z,31.97
2018-12-27T02:37:48.499Z,30.87
2018-12-27T02:40:29.552Z,31.00
2018-12-27T02:43:10.010Z,32.63
2018-12-27T02:45:50.868Z,31.63
2018-12-27T02:48:31.812Z,32.03
2018-12-27T02:51:12.821Z,33.10
2018-12-27T02:53:53.380Z,33.57
2018-12-27T02:56:34.263Z,32.57
2018-12-27T02:59:15.038Z,32.40
2018-12-27T03:01:55.873Z,33.40
2018-12-27T03:04:36.297Z,32.87
2018-12-27T03:07:16.785Z,31.97
2018-12-27T03:09:57.520Z,32.47
2018-12-27T03:12:38.339Z,31.53
2018-12-27T03:15:19.396Z,31.17
2018-12-27T03:17:59.921Z,26.97
2018-12-27T03:20:40.855Z,33.63
2018-12-27T03:23:21.540Z,33.77
2018-12-27T03:26:02.327Z,33.03
2018-12-27T03:28:43.469Z,36.97
2018-12-27T03:31:23.778Z,37.53
2018-12-27T03:34:04.597Z,41.53
2018-12-27T03:36:45.149Z,43.10
2018-12-27T03:39:13.751Z,36.73
2018-12-27T03:42:01.596Z,39.00
2018-12-27T03:44:49.682Z,38.97
2018-12-27T03:47:37.516Z,39.43
2018-12-27T03:50:25.629Z,39.07
2018-12-27T03:53:13.464Z,39.97
2018-12-27T03:55:53.628Z,40.50
2018-12-27T03:58:34.406Z,38.97
2018-12-27T04:01:15.775Z,35.83
2018-12-27T04:04:01.218Z,37.60
2018-12-27T04:06:39.378Z,35.20
2018-12-27T04:09:20.145Z,35.60
2018-12-27T04:12:00.905Z,33.50
2018-12-27T04:14:41.768Z,35.70
2018-12-27T04:17:22.905Z,35.63
2018-12-27T04:20:03.849Z,36.63
2018-12-27T04:22:44.593Z,34.27
2018-12-27T04:25:25.563Z,32.80
2018-12-27T04:28:06.712Z,33.73
2018-12-27T04:30:47.577Z,37.37
2018-12-27T04:33:28.361Z,34.43
2018-12-27T04:36:09.184Z,34.67
2018-12-27T04:38:50.249Z,34.20
2018-12-27T04:41:30.482Z,31.27
2018-12-27T04:44:11.485Z,27.47
2018-12-27T04:46:52.129Z,32.27
2018-12-27T04:49:33.405Z,32.77
2018-12-27T04:52:14.030Z,36.07
2018-12-27T04:54:54.655Z,33.63
2018-12-27T04:57:35.653Z,34.07
2018-12-27T05:00:16.669Z,34.97
2018-12-27T05:02:57.612Z,35.63
2018-12-27T05:05:38.704Z,33.90
2018-12-27T05:08:19.486Z,33.23
2018-12-27T05:11:00.430Z,35.13
2018-12-27T05:13:41.535Z,28.90
2018-12-27T05:16:09.942Z,34.30
2018-12-27T05:18:57.991Z,37.00
2018-12-27T05:21:45.766Z,34.17
2018-12-27T05:24:33.553Z,37.47
2018-12-27T05:27:21.311Z,34.53
2018-12-27T05:30:09.336Z,36.80
2018-12-27T05:32:57.337Z,33.20
2018-12-27T05:35:45.117Z,32.83
2018-12-27T05:38:32.856Z,34.13
2018-12-27T05:41:20.640Z,31.20
2018-12-27T05:44:08.389Z,32.60
2018-12-27T05:46:56.158Z,32.63
2018-12-27T05:49:43.909Z,32.03
2018-12-27T05:52:31.693Z,31.00
2018-12-27T05:55:19.430Z,32.60
2018-12-27T05:58:07.196Z,29.90
2018-12-27T06:00:55.311Z,30.13
2018-12-27T06:03:43.066Z,30.87
2018-12-27T06:06:30.804Z,27.73
2018-12-27T06:09:18.599Z,28.57
2018-12-27T06:11:59.458Z,28.40
2018-12-27T06:14:40.444Z,25.87
2018-12-27T06:17:21.150Z,25.97
2018-12-27T06:20:02.048Z,28.00
2018-12-27T06:22:30.484Z,27.27
2018-12-27T06:25:18.302Z,28.50
2018-12-27T06:28:06.085Z,30.00
2018-12-27T06:30:53.860Z,29.83
2018-12-27T06:33:41.609Z,27.20
2018-12-27T06:36:29.364Z,25.30
2018-12-27T06:39:17.129Z,26.37
2018-12-27T06:42:04.888Z,27.90
2018-12-27T06:44:52.652Z,26.80
2018-12-27T06:47:40.421Z,27.47
2018-12-27T06:50:28.168Z,28.77
2018-12-27T06:53:15.937Z,25.23
2018-12-27T06:56:03.695Z,25.50
2018-12-27T06:58:51.467Z,26.17
2018-12-27T07:01:39.223Z,26.70
2018-12-27T07:04:26.985Z,26.27
2018-12-27T07:07:14.748Z,22.40
2018-12-27T07:10:02.585Z,25.87
2018-12-27T07:12:50.325Z,25.63
2018-12-27T07:15:38.089Z,23.03
2018-12-27T07:18:18.808Z,26.67
2018-12-27T07:20:59.336Z,27.03
2018-12-27T07:23:39.651Z,26.23
2018-12-27T07:26:20.652Z,24.33
2018-12-27T07:29:01.095Z,23.20
2018-12-27T07:31:41.567Z,23.37
2018-12-27T07:34:22.657Z,23.87
2018-12-27T07:37:03.553Z,27.80
2018-12-27T07:39:44.685Z,25.03
2018-12-27T07:42:25.372Z,27.53
2018-12-27T07:45:06.064Z,26.27
2018-12-27T07:47:47.073Z,28.57
2018-12-27T07:50:28.058Z,29.37
2018-12-27T07:53:08.683Z,27.40
2018-12-27T07:55:49.649Z,29.10
2018-12-27T07:58:30.535Z,28.23
2018-12-27T08:01:11.316Z,30.17
2018-12-27T08:03:51.794Z,26.73
2018-12-27T08:06:32.557Z,30.20
2018-12-27T08:09:13.608Z,30.00
2018-12-27T08:11:54.638Z,29.83
2018-12-27T08:14:35.230Z,33.30
2018-12-27T08:17:16.197Z,32.13
2018-12-27T08:19:56.460Z,32.60
2018-12-27T08:22:37.534Z,36.63
2018-12-27T08:25:18.577Z,34.57
2018-12-27T08:27:59.173Z,35.13
2018-12-27T08:30:40.277Z,33.77
2018-12-27T08:33:20.613Z,35.37
2018-12-27T08:36:01.289Z,40.63
2018-12-27T08:38:41.844Z,41.43
2018-12-27T08:41:22.613Z,41.93
2018-12-27T08:44:03.587Z,37.40
2018-12-27T08:46:44.117Z,40.67
2018-12-27T08:49:24.444Z,39.63
2018-12-27T08:52:05.345Z,42.00
2018-12-27T08:54:46.230Z,42.70
2018-12-27T08:57:27.053Z,40.47
2018-12-27T09:00:07.993Z,42.80
2018-12-27T09:02:48.564Z,42.27
2018-12-27T09:05:29.449Z,46.77
2018-12-27T09:08:10.628Z,42.30
2018-12-27T09:10:51.077Z,44.67
2018-12-27T09:13:32.150Z,45.00
2018-12-27T09:16:12.946Z,43.20
2018-12-27T09:18:53.692Z,42.10
2018-12-27T09:21:34.564Z,40.37
2018-12-27T09:24:15.280Z,40.23
2018-12-27T09:26:56.421Z,45.57
2018-12-27T09:29:37.171Z,45.47
2018-12-27T09:32:18.121Z,42.50
2018-12-27T09:34:58.680Z,45.63
2018-12-27T09:37:39.489Z,41.07
2018-12-27T09:40:19.925Z,41.93
2018-12-27T09:43:00.658Z,43.13
2018-12-27T09:45:29.071Z,44.27
2018-12-27T09:48:16.823Z,41.40
2018-12-27T09:51:04.596Z,44.10
2018-12-27T09:53:52.345Z,44.70
2018-12-27T09:56:40.133Z,43.77
2018-12-27T09:59:20.884Z,46.00
2018-12-27T10:02:01.447Z,47.23
2018-12-27T10:04:42.357Z,49.50
2018-12-27T10:07:23.542Z,48.60
2018-12-27T10:10:03.809Z,48.47
2018-12-27T10:12:44.285Z,50.00
2018-12-27T10:15:25.380Z,47.63
2018-12-27T10:18:05.754Z,50.37
2018-12-27T10:20:46.676Z,50.40
2018-12-27T10:23:27.497Z,48.23
2018-12-27T10:26:08.421Z,49.67
2018-12-27T10:28:49.597Z,42.23
2018-12-27T10:31:30.201Z,42.83
2018-12-27T10:34:11.156Z,38.90
2018-12-27T10:36:51.845Z,43.53
2018-12-27T10:39:32.517Z,47.37
2018-12-27T10:42:13.264Z,42.30
2018-12-27T10:44:54.399Z,48.23
2018-12-27T10:47:34.608Z,34.63
2018-12-27T10:50:15.596Z,38.57
2018-12-27T10:52:56.349Z,37.50
2018-12-27T10:55:36.757Z,35.40
2018-12-27T10:58:17.646Z,38.90
2018-12-27T11:00:58.205Z,39.07
2018-12-27T11:03:39.329Z,41.67
2018-12-27T11:06:20.424Z,38.20
2018-12-27T11:09:01.106Z,38.17
2018-12-27T11:11:41.684Z,36.20
2018-12-27T11:14:22.209Z,38.17
2018-12-27T11:17:02.880Z,41.83
2018-12-27T11:19:43.329Z,40.83
2018-12-27T11:22:23.873Z,29.40
2018-12-27T11:25:04.710Z,42.80
2018-12-27T11:27:33.220Z,43.53
2018-12-27T11:30:20.988Z,45.77
2018-12-27T11:33:08.770Z,43.43
2018-12-27T11:35:56.524Z,44.27
2018-12-27T11:38:44.290Z,44.10
2018-12-27T11:41:32.057Z,46.40
2018-12-27T11:44:20.116Z,41.70
2018-12-27T11:47:07.892Z,42.10
2018-12-27T11:49:55.616Z,39.87
2018-12-27T11:52:43.401Z,39.50
2018-12-27T11:55:31.182Z,39.63
2018-12-27T11:58:18.920Z,41.07
2018-12-27T12:01:06.701Z,40.10
2018-12-27T12:03:54.465Z,42.93
2018-12-27T12:06:42.234Z,41.27
2018-12-27T12:09:29.991Z,43.93
2018-12-27T12:12:17.795Z,46.83
2018-12-27T12:14:58.520Z,50.70
2018-12-27T12:17:38.934Z,48.07
2018-12-27T12:20:20.045Z,46.63
2018-12-27T12:23:00.382Z,49.37
2018-12-27T12:25:41.096Z,46.97
2018-12-27T12:28:21.854Z,51.60
2018-12-27T12:31:02.430Z,50.77
2018-12-27T12:33:43.717Z,47.10
2018-12-27T12:36:24.092Z,47.33
2018-12-27T12:39:04.766Z,49.93
2018-12-27T12:41:46.073Z,48.10
2018-12-27T12:44:14.508Z,47.13
2018-12-27T12:47:02.241Z,43.80
2018-12-27T12:49:50.014Z,43.23
2018-12-27T12:52:39.246Z,43.80
2018-12-27T12:55:27.256Z,44.27
2018-12-27T12:58:14.998Z,39.10
2018-12-27T13:01:03.044Z,48.20
2018-12-27T13:03:50.839Z,41.33
2018-12-27T13:06:38.588Z,40.93
2018-12-27T13:09:26.361Z,46.70
2018-12-27T13:12:14.133Z,45.20
2018-12-27T13:15:01.902Z,48.37
2018-12-27T13:17:49.647Z,46.33
2018-12-27T13:20:18.056Z,48.37
2018-12-27T13:23:05.816Z,44.87
2018-12-27T13:25:53.585Z,43.83
2018-12-27T13:28:41.364Z,42.77
2018-12-27T13:31:29.113Z,14.53
2018-12-27T13:34:10.193Z,26.93
2018-12-27T13:36:51.105Z,42.80
2018-12-27T13:39:32.113Z,37.37
2018-12-27T13:42:12.788Z,41.57
2018-12-27T13:44:53.532Z,38.23
2018-12-27T13:47:34.328Z,40.30
2018-12-27T13:50:15.265Z,40.67
2018-12-27T13:52:53.977Z,38.57
2018-12-27T13:55:42.025Z,42.53
2018-12-27T13:58:29.784Z,40.97
2018-12-27T14:01:17.569Z,37.83
2018-12-27T14:04:05.629Z,39.07
2018-12-27T14:06:53.398Z,42.60
2018-12-27T14:09:41.219Z,42.27
2018-12-27T14:12:28.987Z,45.47
2018-12-27T14:15:16.742Z,46.67
2018-12-27T14:18:04.808Z,39.93
2018-12-27T14:20:52.542Z,43.03
2018-12-27T14:23:40.307Z,41.77
2018-12-27T14:26:28.296Z,39.47
2018-12-27T14:29:16.066Z,37.63
2018-12-27T14:32:03.866Z,38.73
2018-12-27T14:34:51.668Z,45.23
2018-12-27T14:37:39.581Z,43.83
2018-12-27T14:40:27.360Z,41.80
2018-12-27T14:43:34.677Z,38.27
2018-12-27T14:46:22.913Z,40.23
2018-12-27T14:49:10.957Z,38.00
2018-12-27T14:51:58.889Z,37.53
2018-12-27T14:54:46.644Z,39.07
2018-12-27T14:57:34.461Z,40.50
2018-12-27T15:00:15.068Z,37.70
2018-12-27T15:02:56.334Z,35.20
2018-12-27T15:05:37.308Z,38.73
2018-12-27T15:08:18.104Z,14.53
2018-12-27T15:10:58.521Z,33.20
2018-12-27T15:13:39.405Z,39.43
2018-12-27T15:16:20.364Z,41.93
2018-12-27T15:18:59.044Z,40.60
2018-12-27T15:21:46.820Z,42.27
2018-12-27T15:24:34.747Z,36.53
2018-12-27T15:27:22.501Z,33.43
2018-12-27T15:30:10.524Z,37.63
2018-12-27T15:32:58.287Z,35.73
2018-12-27T15:35:46.096Z,37.93
2018-12-27T15:38:33.857Z,36.13
2018-12-27T15:41:21.644Z,40.30
2018-12-27T15:44:09.604Z,33.30
2018-12-27T15:46:57.366Z,34.77
2018-12-27T15:49:45.224Z,39.57
2018-12-27T15:52:33.040Z,41.20
2018-12-27T15:55:20.827Z,36.50
2018-12-27T15:57:49.237Z,38.43
2018-12-27T16:00:36.998Z,38.47
2018-12-27T16:03:17.907Z,40.03
2018-12-27T16:05:58.646Z,40.83
2018-12-27T16:08:39.577Z,39.23
2018-12-27T16:11:20.470Z,39.90
2018-12-27T16:14:00.999Z,42.07
2018-12-27T16:16:41.528Z,36.60
2018-12-27T16:19:22.669Z,39.30
2018-12-27T16:22:03.138Z,38.57
2018-12-27T16:24:43.909Z,36.77
2018-12-27T16:27:24.505Z,39.23
2018-12-27T16:30:05.613Z,36.77
2018-12-27T16:32:46.089Z,37.30
2018-12-27T16:35:26.654Z,42.47
2018-12-27T16:40:49.810Z,39.00
2018-12-27T16:43:18.205Z,41.33
2018-12-27T16:46:06.025Z,37.43
2018-12-27T16:48:53.769Z,38.13
2018-12-27T16:51:41.537Z,35.70
2018-12-27T16:54:29.272Z,35.13
2018-12-27T16:57:19.916Z,24.40
2018-12-27T17:00:07.648Z,40.00
2018-12-27T17:02:55.417Z,35.80
2018-12-27T17:05:43.186Z,35.03
2018-12-27T17:08:30.920Z,36.73
2018-12-27T17:11:19.000Z,38.37
2018-12-27T17:14:06.747Z,34.20
2018-12-27T17:16:54.780Z,35.90
2018-12-27T17:19:42.566Z,35.60
2018-12-27T17:22:30.408Z,37.33
2018-12-27T17:25:18.180Z,37.77
2018-12-27T17:28:05.962Z,35.27
2018-12-27T17:30:53.721Z,39.13
2018-12-27T17:33:41.498Z,37.63
2018-12-27T17:36:29.633Z,38.40
2018-12-27T17:39:10.152Z,39.70
2018-12-27T17:41:50.612Z,39.00
2018-12-27T17:44:31.896Z,36.50
2018-12-27T17:47:12.945Z,17.03
2018-12-27T17:49:53.461Z,37.17
2018-12-27T17:52:34.156Z,36.73
2018-12-27T17:55:14.867Z,33.33
2018-12-27T17:57:55.229Z,36.10
2018-12-27T18:00:35.541Z,35.00
2018-12-27T18:03:16.030Z,36.07
2018-12-27T18:05:57.318Z,40.83
2018-12-27T18:08:37.741Z,40.50
2018-12-27T18:11:18.768Z,38.73
2018-12-27T18:13:59.195Z,37.97
2018-12-27T18:16:41.277Z,37.43
2018-12-27T18:19:22.144Z,41.50
2018-12-27T18:22:02.997Z,38.17
2018-12-27T18:24:44.263Z,38.37
2018-12-27T18:27:24.864Z,40.23
2018-12-27T18:30:05.518Z,39.20
2018-12-27T18:32:46.441Z,35.30
2018-12-27T18:35:27.300Z,39.23
2018-12-27T18:38:08.216Z,37.87
2018-12-27T18:40:49.241Z,42.57
2018-12-27T18:43:30.184Z,40.70
2018-12-27T18:45:58.662Z,38.40
2018-12-27T18:48:46.441Z,38.60
2018-12-27T18:51:34.450Z,36.23
2018-12-27T18:54:22.280Z,47.13
2018-12-27T18:57:10.032Z,37.93
2018-12-27T18:59:57.790Z,38.30
2018-12-27T19:02:41.938Z,39.87
2018-12-27T19:05:21.260Z,37.30
2018-12-27T19:08:02.153Z,35.77
2018-12-27T19:10:42.786Z,39.30
2018-12-27T19:13:23.709Z,39.73
2018-12-27T19:16:04.365Z,37.47
2018-12-27T19:18:45.001Z,34.30
2018-12-27T19:21:25.901Z,37.37
2018-12-27T19:23:54.576Z,36.60
2018-12-27T19:26:42.333Z,37.37
2018-12-27T19:29:30.072Z,39.40
2018-12-27T19:32:18.159Z,40.67
2018-12-27T19:35:05.897Z,35.90
2018-12-27T19:37:53.664Z,41.27
2018-12-27T19:40:41.416Z,41.03
2018-12-27T19:43:29.187Z,39.90
2018-12-27T19:46:16.925Z,41.90
2018-12-27T19:49:04.688Z,24.63
2018-12-27T19:51:52.585Z,37.83
2018-12-27T19:54:40.358Z,37.17
2018-12-27T19:57:28.092Z,36.70
2018-12-27T20:00:15.872Z,38.00
2018-12-27T20:03:03.645Z,37.97
2018-12-27T20:05:51.412Z,39.20
2018-12-27T20:08:39.148Z,43.73
2018-12-27T20:11:26.921Z,42.10
2018-12-27T20:14:15.415Z,44.20
2018-12-27T20:16:57.253Z,45.07
2018-12-27T20:19:37.996Z,42.00
2018-12-27T20:22:19.831Z,48.20
2018-12-27T20:25:00.805Z,41.10
2018-12-27T20:27:41.389Z,47.10
2018-12-27T20:30:22.536Z,45.97
2018-12-27T20:33:03.321Z,41.73
2018-12-27T20:35:44.116Z,45.37
2018-12-27T20:38:24.973Z,46.43
2018-12-27T20:41:05.948Z,49.93
2018-12-27T20:43:47.280Z,47.33
2018-12-27T20:46:28.257Z,49.53
2018-12-27T20:49:09.180Z,47.83
2018-12-27T20:51:49.679Z,50.43
2018-12-27T20:54:30.125Z,47.33
2018-12-27T20:57:10.850Z,53.90
2018-12-27T20:59:52.052Z,51.13
2018-12-27T21:02:33.126Z,51.30
2018-12-27T21:05:13.709Z,51.33
2018-12-27T21:07:54.016Z,53.30
2018-12-27T21:10:34.494Z,45.77
2018-12-27T21:13:15.061Z,51.50
2018-12-27T21:15:55.517Z,48.53
2018-12-27T21:18:36.129Z,51.83
2018-12-27T21:23:59.360Z,49.93
2018-12-27T21:26:40.301Z,45.57
2018-12-27T21:29:21.430Z,48.47
2018-12-27T21:32:02.293Z,53.97
2018-12-27T21:34:43.089Z,52.70
2018-12-27T21:37:23.525Z,52.03
2018-12-27T21:40:03.988Z,50.43
2018-12-27T21:42:44.408Z,54.83
2018-12-27T21:45:24.933Z,48.73
2018-12-27T21:48:05.703Z,48.90
2018-12-27T21:50:45.949Z,48.33
2018-12-27T21:53:26.558Z,48.00
2018-12-27T21:56:07.723Z,47.33
2018-12-27T21:58:48.745Z,49.83
2018-12-27T22:01:29.369Z,48.40
2018-12-27T22:04:10.132Z,47.13
2018-12-27T22:06:50.700Z,46.30
2018-12-27T22:09:30.877Z,48.50
2018-12-27T22:12:12.260Z,48.00
2018-12-27T22:14:53.153Z,45.43
2018-12-27T22:17:33.511Z,42.33
2018-12-27T22:20:14.404Z,47.33
2018-12-27T22:22:55.160Z,47.40
2018-12-27T22:25:35.985Z,57.07
2018-12-27T22:28:16.921Z,52.63
2018-12-27T22:30:57.792Z,50.47
2018-12-27T22:33:38.612Z,52.97
2018-12-27T22:36:18.949Z,49.23
2018-12-27T22:38:59.361Z,46.73
2018-12-27T22:41:40.582Z,48.27
2018-12-27T22:44:21.522Z,50.13
2018-12-27T22:47:02.346Z,51.33
2018-12-27T22:49:42.977Z,49.33
2018-12-27T22:52:23.180Z,48.50
2018-12-27T22:55:03.469Z,53.23
2018-12-27T22:57:44.034Z,47.43
2018-12-27T23:00:29.392Z,52.07
2018-12-27T23:03:09.677Z,54.93
2018-12-27T23:05:50.806Z,50.03
2018-12-27T23:08:31.537Z,56.50
2018-12-27T23:11:12.241Z,50.83
2018-12-27T23:13:52.990Z,26.00
2018-12-27T23:16:33.527Z,48.27
2018-12-27T23:19:14.411Z,52.10
2018-12-27T23:21:54.987Z,52.50
2018-12-27T23:24:35.515Z,53.27
2018-12-27T23:27:16.425Z,50.83
2018-12-27T23:29:57.316Z,57.30
2018-12-27T23:32:38.420Z,49.80
2018-12-27T23:35:19.141Z,33.83
2018-12-27T23:37:59.939Z,51.43
2018-12-27T23:40:40.444Z,53.80
2018-12-27T23:43:21.264Z,51.47
2018-12-27T23:46:01.653Z,48.73
2018-12-27T23:48:42.613Z,50.03
2018-12-27T23:51:23.322Z,48.07
2018-12-27T23:54:03.824Z,50.17
2018-12-27T23:56:44.499Z,47.47
2018-12-27T23:59:23.205Z,51.07
